createdAt,value
2016-05-07T00:00:26.687Z,77.59
2016-05-07T00:01:26.673Z,77.92
2016-05-07T00:02:26.645Z,78.17
2016-05-07T00:03:26.648Z,78.74
2016-05-07T00:04:26.603Z,78.27
2016-05-07T00:05:26.590Z,77.97
2016-05-07T00:06:26.593Z,78.45
2016-05-07T00:07:26.565Z,78.55
2016-05-07T00:08:26.552Z,77.78
2016-05-07T00:09:26.555Z,77.78
2016-05-07T00:10:26.525Z,77.92
2016-05-07T00:11:26.498Z,77.92
2016-05-07T00:12:26.359Z,77.82
2016-05-07T00:13:26.455Z,77.78
2016-05-07T00:14:26.444Z,77.4
2016-05-07T00:15:26.430Z,78.2
2016-05-07T00:16:26.416Z,78.17
2016-05-07T00:17:26.404Z,77.73
2016-05-07T00:18:26.375Z,77.73
2016-05-07T00:19:26.347Z,77.92
2016-05-07T00:20:26.335Z,77.73
2016-05-07T00:21:26.321Z,77.82
2016-05-07T00:22:26.308Z,77.88
2016-05-07T00:23:26.279Z,77.53
2016-05-07T00:24:26.266Z,77.82
2016-05-07T00:25:26.254Z,77.59
2016-05-07T00:26:26.226Z,77.59
2016-05-07T00:27:26.368Z,77.92
2016-05-07T00:28:26.199Z,77.73
2016-05-07T00:29:26.170Z,77.5
2016-05-07T00:30:26.158Z,77.69
2016-05-07T00:31:26.145Z,78.11
2016-05-07T00:32:26.117Z,77.73
2016-05-07T00:33:26.103Z,77.73
2016-05-07T00:34:26.075Z,77.73
2016-05-07T00:35:26.078Z,77.73
2016-05-07T00:36:26.033Z,78.69
2016-05-07T00:37:26.037Z,77.97
2016-05-07T00:38:26.008Z,77.82
2016-05-07T00:39:26.011Z,77.92
2016-05-07T00:40:25.981Z,78.59
2016-05-07T00:41:25.969Z,79.13
2016-05-07T00:42:25.939Z,78.84
2016-05-07T00:43:25.927Z,78.36
2016-05-07T00:44:25.899Z,78.78
2016-05-07T00:45:25.886Z,79.07
2016-05-07T00:46:25.872Z,79.32
2016-05-07T00:47:25.844Z,79.13
2016-05-07T00:48:25.831Z,79.32
2016-05-07T00:49:25.818Z,78.78
2016-05-07T00:50:25.790Z,78.88
2016-05-07T00:51:25.777Z,78.97
2016-05-07T00:52:25.748Z,78.97
2016-05-07T00:53:25.751Z,79.64
2016-05-07T00:54:25.722Z,79.32
2016-05-07T00:55:25.710Z,79.16
2016-05-07T00:56:25.682Z,79.36
2016-05-07T00:57:25.683Z,78.59
2016-05-07T00:58:25.655Z,79.55
2016-05-07T00:59:25.485Z,79.36
2016-05-07T01:00:25.613Z,79.16
2016-05-07T01:01:25.600Z,78.78
2016-05-07T01:02:25.587Z,79.26
2016-05-07T01:03:25.418Z,79.74
2016-05-07T01:04:25.546Z,79.74
2016-05-07T01:05:25.534Z,79.74
2016-05-07T01:06:25.520Z,79.74
2016-05-07T01:07:25.507Z,79.83
2016-05-07T01:08:25.322Z,79.83
2016-05-07T01:09:25.466Z,79.64
2016-05-07T01:10:25.453Z,80.37
2016-05-07T01:11:25.425Z,80.18
2016-05-07T01:12:25.411Z,80.56
2016-05-07T01:13:25.383Z,79.99
2016-05-07T01:14:25.386Z,80.12
2016-05-07T01:15:25.372Z,79.74
2016-05-07T01:16:25.344Z,80.37
2016-05-07T01:17:25.316Z,80.56
2016-05-07T01:18:25.302Z,80.76
2016-05-07T01:19:25.274Z,80.94
2016-05-07T01:20:25.260Z,80.85
2016-05-07T01:21:25.249Z,80.94
2016-05-07T01:22:25.079Z,80.47
2016-05-07T01:23:25.050Z,80.66
2016-05-07T01:24:25.193Z,80.27
2016-05-07T01:25:25.166Z,80.66
2016-05-07T01:26:25.167Z,81.13
2016-05-07T01:27:25.655Z,81.13
2016-05-07T01:28:24.986Z,80.76
2016-05-07T01:29:25.098Z,80.56
2016-05-07T01:30:25.084Z,80.66
2016-05-07T01:31:25.072Z,80.6
2016-05-07T01:32:25.043Z,80.7
2016-05-07T01:33:25.046Z,80.7
2016-05-07T01:34:25.018Z,81.23
2016-05-07T01:35:24.989Z,80.37
2016-05-07T01:36:24.976Z,81.04
2016-05-07T01:37:24.947Z,81.13
2016-05-07T01:38:24.934Z,81.13
2016-05-07T01:39:24.922Z,80.56
2016-05-07T01:40:24.909Z,80.76
2016-05-07T01:41:24.904Z,80.7
2016-05-07T01:42:25.880Z,81.23
2016-05-07T01:43:24.867Z,81.62
2016-05-07T01:44:24.851Z,81.43
2016-05-07T01:45:24.821Z,81.62
2016-05-07T01:46:24.809Z,81.43
2016-05-07T01:47:24.874Z,81.81
2016-05-07T01:48:24.782Z,81.62
2016-05-07T01:49:24.738Z,81.43
2016-05-07T01:50:24.566Z,81.33
2016-05-07T01:51:24.710Z,81.71
2016-05-07T01:52:24.697Z,80.94
2016-05-07T01:53:24.667Z,81.23
2016-05-07T01:54:24.656Z,80.7
2016-05-07T01:55:24.470Z,80.79
2016-05-07T01:56:24.614Z,81.13
2016-05-07T01:57:25.166Z,81.75
2016-05-07T01:58:24.572Z,80.99
2016-05-07T01:59:24.559Z,80.7
2016-05-07T02:00:24.531Z,81.08
2016-05-07T02:01:24.518Z,81.46
2016-05-07T02:02:24.505Z,81.43
2016-05-07T02:03:24.492Z,81.33
2016-05-07T02:04:24.479Z,82
2016-05-07T02:05:24.450Z,82.19
2016-05-07T02:06:24.422Z,81.43
2016-05-07T02:07:24.425Z,81.46
2016-05-07T02:08:24.240Z,81.62
2016-05-07T02:09:24.383Z,81.33
2016-05-07T02:10:24.370Z,81.43
2016-05-07T02:11:24.357Z,81.66
2016-05-07T02:12:24.188Z,81.56
2016-05-07T02:13:24.316Z,81.66
2016-05-07T02:14:24.131Z,81.18
2016-05-07T02:15:24.274Z,81.56
2016-05-07T02:16:24.276Z,81.52
2016-05-07T02:17:24.249Z,81.56
2016-05-07T02:18:24.220Z,81.75
2016-05-07T02:19:24.192Z,81.37
2016-05-07T02:20:24.194Z,81.46
2016-05-07T02:21:24.165Z,81.27
2016-05-07T02:22:24.152Z,81.18
2016-05-07T02:23:24.140Z,81.18
2016-05-07T02:24:24.114Z,81.27
2016-05-07T02:25:24.101Z,81.27
2016-05-07T02:26:24.073Z,80.79
2016-05-07T02:27:24.059Z,80.22
2016-05-07T02:28:24.031Z,80.6
2016-05-07T02:29:24.034Z,81.08
2016-05-07T02:30:23.834Z,80.7
2016-05-07T02:31:23.992Z,80.32
2016-05-07T02:32:23.963Z,80.7
2016-05-07T02:33:23.950Z,80.89
2016-05-07T02:34:23.939Z,80.79
2016-05-07T02:35:23.925Z,80.89
2016-05-07T02:36:23.897Z,80.66
2016-05-07T02:37:23.867Z,80.85
2016-05-07T02:38:23.869Z,80.56
2016-05-07T02:39:23.842Z,80.85
2016-05-07T02:40:23.830Z,80.66
2016-05-07T02:41:23.816Z,80.66
2016-05-07T02:42:23.928Z,80.32
2016-05-07T02:43:23.774Z,80.22
2016-05-07T02:44:23.761Z,80.79
2016-05-07T02:45:23.733Z,80.47
2016-05-07T02:46:23.721Z,80.12
2016-05-07T02:47:23.707Z,80.12
2016-05-07T02:48:23.694Z,79.74
2016-05-07T02:49:23.509Z,79.45
2016-05-07T02:50:23.652Z,79.74
2016-05-07T02:51:23.640Z,79.26
2016-05-07T02:52:23.612Z,79.16
2016-05-07T02:53:23.598Z,79.55
2016-05-07T02:54:23.570Z,79.45
2016-05-07T02:55:23.573Z,78.97
2016-05-07T02:56:23.543Z,78.97
2016-05-07T02:57:23.781Z,79.36
2016-05-07T02:58:23.503Z,79.26
2016-05-07T02:59:23.333Z,79.45
2016-05-07T03:00:23.476Z,79.07
2016-05-07T03:01:23.464Z,78.88
2016-05-07T03:02:23.434Z,78.78
2016-05-07T03:03:23.422Z,78.4
2016-05-07T03:04:23.394Z,78.69
2016-05-07T03:05:23.381Z,78.78
2016-05-07T03:06:23.367Z,78.69
2016-05-07T03:07:23.339Z,78.59
2016-05-07T03:08:23.341Z,79.07
2016-05-07T03:09:23.313Z,79.26
2016-05-07T03:10:23.300Z,78.78
2016-05-07T03:11:23.272Z,78.49
2016-05-07T03:12:23.508Z,78.69
2016-05-07T03:13:23.246Z,79.07
2016-05-07T03:14:23.216Z,78.69
2016-05-07T03:15:23.205Z,78.88
2016-05-07T03:16:23.191Z,79.45
2016-05-07T03:17:23.179Z,78.78
2016-05-07T03:18:23.149Z,79.16
2016-05-07T03:19:23.152Z,79.26
2016-05-07T03:20:23.123Z,78.49
2016-05-07T03:21:23.096Z,79.16
2016-05-07T03:22:23.082Z,78.88
2016-05-07T03:23:23.070Z,78.88
2016-05-07T03:24:23.040Z,78.59
2016-05-07T03:25:23.029Z,78.82
2016-05-07T03:26:23.015Z,78.2
2016-05-07T03:27:23.002Z,78.59
2016-05-07T03:28:22.973Z,78.72
2016-05-07T03:29:22.961Z,78.69
2016-05-07T03:30:22.791Z,78.59
2016-05-07T03:31:22.935Z,78.59
2016-05-07T03:32:22.906Z,78.4
2016-05-07T03:33:22.737Z,78.88
2016-05-07T03:34:22.708Z,78.74
2016-05-07T03:35:22.853Z,79.07
2016-05-07T03:36:22.839Z,78.88
2016-05-07T03:37:22.826Z,78.78
2016-05-07T03:38:22.656Z,78.4
2016-05-07T03:39:22.784Z,78.4
2016-05-07T03:40:22.771Z,78.4
2016-05-07T03:41:22.759Z,78.3
2016-05-07T03:42:22.589Z,78.69
2016-05-07T03:43:22.716Z,78.69
2016-05-07T03:44:22.532Z,78.49
2016-05-07T03:45:22.675Z,78.78
2016-05-07T03:46:22.663Z,78.59
2016-05-07T03:47:22.650Z,77.63
2016-05-07T03:48:22.621Z,78.4
2016-05-07T03:49:22.608Z,78.59
2016-05-07T03:50:22.596Z,78.78
2016-05-07T03:51:22.582Z,78.49
2016-05-07T03:52:22.554Z,78.59
2016-05-07T03:53:22.540Z,78.49
2016-05-07T03:54:22.356Z,78.49
2016-05-07T03:55:22.499Z,78.02
2016-05-07T03:56:22.486Z,77.73
2016-05-07T03:57:22.474Z,78.11
2016-05-07T03:58:22.460Z,77.73
2016-05-07T03:59:22.276Z,77.92
2016-05-07T04:00:22.419Z,77.82
2016-05-07T04:01:22.390Z,77.92
2016-05-07T04:02:22.393Z,77.73
2016-05-07T04:03:22.364Z,78.49
2016-05-07T04:04:22.336Z,78.2
2016-05-07T04:05:22.323Z,77.73
2016-05-07T04:06:22.139Z,77.82
2016-05-07T04:07:22.297Z,77.53
2016-05-07T04:08:22.269Z,77.92
2016-05-07T04:09:22.256Z,77.53
2016-05-07T04:10:22.086Z,77.67
2016-05-07T04:11:22.058Z,77.53
2016-05-07T04:12:22.045Z,77.63
2016-05-07T04:13:22.172Z,77.15
2016-05-07T04:14:22.160Z,77.73
2016-05-07T04:15:22.147Z,77.44
2016-05-07T04:16:21.977Z,77.53
2016-05-07T04:17:22.105Z,76.67
2016-05-07T04:18:22.093Z,77.09
2016-05-07T04:19:22.080Z,77.73
2016-05-07T04:20:22.066Z,77.73
2016-05-07T04:21:22.038Z,77.53
2016-05-07T04:22:22.040Z,77.73
2016-05-07T04:23:22.012Z,77.73
2016-05-07T04:24:21.984Z,77.73
2016-05-07T04:25:21.971Z,78.49
2016-05-07T04:26:21.957Z,78.11
2016-05-07T04:27:21.945Z,77.92
2016-05-07T04:28:21.916Z,78.11
2016-05-07T04:29:21.903Z,78.15
2016-05-07T04:30:21.890Z,78.49
2016-05-07T04:31:21.878Z,78.49
2016-05-07T04:32:21.848Z,78.3
2016-05-07T04:33:21.836Z,78.78
2016-05-07T04:34:21.823Z,78.59
2016-05-07T04:35:21.794Z,78.59
2016-05-07T04:36:21.782Z,78.25
2016-05-07T04:37:21.784Z,78.11
2016-05-07T04:38:21.755Z,78.15
2016-05-07T04:39:21.728Z,78.53
2016-05-07T04:40:21.698Z,78.25
2016-05-07T04:41:21.685Z,78.49
2016-05-07T04:42:21.547Z,78.97
2016-05-07T04:43:21.661Z,78.88
2016-05-07T04:44:21.631Z,79.55
2016-05-07T04:45:21.633Z,79.64
2016-05-07T04:46:21.605Z,79.26
2016-05-07T04:47:21.577Z,79.55
2016-05-07T04:48:21.408Z,79.55
2016-05-07T04:49:21.551Z,79.36
2016-05-07T04:50:21.382Z,78.78
2016-05-07T04:51:21.510Z,79.36
2016-05-07T04:52:21.496Z,79.26
2016-05-07T04:53:21.483Z,79.36
2016-05-07T04:54:21.470Z,79.45
2016-05-07T04:55:21.442Z,79.36
2016-05-07T04:56:21.429Z,78.78
2016-05-07T04:57:22.198Z,78.97
2016-05-07T04:58:21.387Z,79.55
2016-05-07T04:59:21.374Z,79.26
2016-05-07T05:00:21.362Z,79.45
2016-05-07T05:01:21.334Z,79.07
2016-05-07T05:02:21.179Z,79.55
2016-05-07T05:03:21.307Z,79.64
2016-05-07T05:04:21.294Z,79.83
2016-05-07T05:05:21.282Z,79.83
2016-05-07T05:06:21.253Z,79.26
2016-05-07T05:07:21.239Z,79.36
2016-05-07T05:08:21.055Z,79.26
2016-05-07T05:09:21.198Z,79.83
2016-05-07T05:10:21.186Z,79.45
2016-05-07T05:11:21.173Z,79.07
2016-05-07T05:12:21.144Z,79.55
2016-05-07T05:13:20.975Z,79.36
2016-05-07T05:14:21.102Z,79.26
2016-05-07T05:15:21.089Z,79.55
2016-05-07T05:16:21.077Z,79.26
2016-05-07T05:17:21.048Z,79.64
2016-05-07T05:18:21.035Z,80.32
2016-05-07T05:19:21.022Z,80.32
2016-05-07T05:20:21.010Z,79.93
2016-05-07T05:21:20.980Z,80.22
2016-05-07T05:22:20.969Z,80.32
2016-05-07T05:23:20.955Z,80.12
2016-05-07T05:24:20.941Z,80.32
2016-05-07T05:25:20.913Z,80.51
2016-05-07T05:26:20.744Z,80.32
2016-05-07T05:27:20.824Z,80.79
2016-05-07T05:28:20.874Z,80.41
2016-05-07T05:29:20.690Z,80.7
2016-05-07T05:30:20.833Z,80.32
2016-05-07T05:31:20.820Z,81.08
2016-05-07T05:32:20.792Z,81.46
2016-05-07T05:33:20.795Z,81.46
2016-05-07T05:34:20.750Z,81.56
2016-05-07T05:35:20.737Z,81.85
2016-05-07T05:36:20.724Z,81.75
2016-05-07T05:37:20.555Z,81.56
2016-05-07T05:38:20.683Z,81.27
2016-05-07T05:39:20.654Z,81.46
2016-05-07T05:40:20.641Z,81.75
2016-05-07T05:41:20.629Z,81.18
2016-05-07T05:42:21.022Z,81.66
2016-05-07T05:43:20.446Z,81.18
2016-05-07T05:44:20.590Z,82.04
2016-05-07T05:45:20.577Z,81.37
2016-05-07T05:46:20.533Z,81.37
2016-05-07T05:47:20.535Z,81.46
2016-05-07T05:48:20.506Z,81.18
2016-05-07T05:49:20.509Z,81.18
2016-05-07T05:50:20.480Z,81.56
2016-05-07T05:51:20.452Z,81.56
2016-05-07T05:52:20.283Z,81.95
2016-05-07T05:53:20.411Z,81.18
2016-05-07T05:54:20.413Z,81.12
2016-05-07T05:55:20.385Z,80.89
2016-05-07T05:56:20.372Z,80.79
2016-05-07T05:57:20.374Z,80.7
2016-05-07T05:58:20.346Z,80.7
2016-05-07T05:59:20.318Z,81.18
2016-05-07T06:00:20.305Z,81.27
2016-05-07T06:01:20.276Z,80.79
2016-05-07T06:02:20.263Z,80.7
2016-05-07T06:03:20.250Z,80.22
2016-05-07T06:04:20.221Z,80.79
2016-05-07T06:05:20.209Z,80.6
2016-05-07T06:06:20.227Z,80.41
2016-05-07T06:07:20.182Z,80.6
2016-05-07T06:08:19.998Z,80.6
2016-05-07T06:09:20.142Z,80.32
2016-05-07T06:10:20.129Z,80.32
2016-05-07T06:11:20.100Z,80.22
2016-05-07T06:12:20.086Z,80.12
2016-05-07T06:13:20.073Z,80.12
2016-05-07T06:14:20.045Z,79.83
2016-05-07T06:15:20.033Z,79.74
2016-05-07T06:16:20.020Z,79.55
2016-05-07T06:17:20.006Z,80.35
2016-05-07T06:18:19.978Z,79.83
2016-05-07T06:19:19.965Z,79.45
2016-05-07T06:20:19.953Z,80.03
2016-05-07T06:21:19.767Z,79.93
2016-05-07T06:22:19.911Z,79.74
2016-05-07T06:23:20.288Z,80.03
2016-05-07T06:24:20.619Z,80.41
2016-05-07T06:25:19.856Z,81.27
2016-05-07T06:26:19.843Z,82
2016-05-07T06:27:20.018Z,83.05
2016-05-07T06:28:19.818Z,85.54
2016-05-07T06:29:19.788Z,86.12
2016-05-07T06:30:19.760Z,86.84
2016-05-07T06:31:19.762Z,88.37
2016-05-07T06:32:19.734Z,88.95
2016-05-07T06:33:19.566Z,90.15
2016-05-07T06:34:19.693Z,89.72
2016-05-07T06:35:19.539Z,91.2
2016-05-07T06:36:19.668Z,90.72
2016-05-07T06:37:19.482Z,91.87
2016-05-07T06:38:19.641Z,92.25
2016-05-07T06:39:19.612Z,92.83
2016-05-07T06:40:19.584Z,92.35
2016-05-07T06:41:19.587Z,93.4
2016-05-07T06:42:19.730Z,93.5
2016-05-07T06:43:19.545Z,93.4
2016-05-07T06:44:19.375Z,93.5
2016-05-07T06:45:19.503Z,93.79
2016-05-07T06:46:19.491Z,93.59
2016-05-07T06:47:19.462Z,92.83
2016-05-07T06:48:19.450Z,93.12
2016-05-07T06:49:19.280Z,92.35
2016-05-07T06:50:19.408Z,92.25
2016-05-07T06:51:19.380Z,92.25
2016-05-07T06:52:19.366Z,92.44
2016-05-07T06:53:19.353Z,93.02
2016-05-07T06:54:19.325Z,92.16
2016-05-07T06:55:19.311Z,92.92
2016-05-07T06:56:19.299Z,92.92
2016-05-07T06:57:19.738Z,92.73
2016-05-07T06:58:19.258Z,92.54
2016-05-07T06:59:19.244Z,92.35
2016-05-07T07:00:19.215Z,92.16
2016-05-07T07:01:19.218Z,92.73
2016-05-07T07:02:19.205Z,92.63
2016-05-07T07:03:19.162Z,92.73
2016-05-07T07:04:19.133Z,93.02
2016-05-07T07:05:19.120Z,92.83
2016-05-07T07:06:19.107Z,92.83
2016-05-07T07:07:19.078Z,92.16
2016-05-07T07:08:19.066Z,92.06
2016-05-07T07:09:19.053Z,92.25
2016-05-07T07:10:19.023Z,92.16
2016-05-07T07:11:19.012Z,92.54
2016-05-07T07:12:19.076Z,92.44
2016-05-07T07:13:18.970Z,92.25
2016-05-07T07:14:18.956Z,92.35
2016-05-07T07:15:18.944Z,92.06
2016-05-07T07:16:18.914Z,91.49
2016-05-07T07:17:18.903Z,91.68
2016-05-07T07:18:18.890Z,91.68
2016-05-07T07:19:18.861Z,91.3
2016-05-07T07:20:18.691Z,91.77
2016-05-07T07:21:18.819Z,91.58
2016-05-07T07:22:18.822Z,91.58
2016-05-07T07:23:18.794Z,91.87
2016-05-07T07:24:18.781Z,91.11
2016-05-07T07:25:18.752Z,91.39
2016-05-07T07:26:18.739Z,91.3
2016-05-07T07:27:18.726Z,91.44
2016-05-07T07:28:18.729Z,91.25
2016-05-07T07:29:18.684Z,91.11
2016-05-07T07:30:18.656Z,91.2
2016-05-07T07:31:18.488Z,91.68
2016-05-07T07:32:18.630Z,91.39
2016-05-07T07:33:18.601Z,91.01
2016-05-07T07:34:18.604Z,90.82
2016-05-07T07:35:18.560Z,91.39
2016-05-07T07:36:18.547Z,91.3
2016-05-07T07:37:18.535Z,91.2
2016-05-07T07:38:18.506Z,91.2
2016-05-07T07:39:18.493Z,91.39
2016-05-07T07:40:18.495Z,91.2
2016-05-07T07:41:18.467Z,91.2
2016-05-07T07:42:18.438Z,91.2
2016-05-07T07:43:18.426Z,90.67
2016-05-07T07:44:18.397Z,91.25
2016-05-07T07:45:18.384Z,91.01
2016-05-07T07:46:18.214Z,90.67
2016-05-07T07:47:18.342Z,91.01
2016-05-07T07:48:18.329Z,91.11
2016-05-07T07:49:18.301Z,92.16
2016-05-07T07:50:18.288Z,92.25
2016-05-07T07:51:18.259Z,93.02
2016-05-07T07:52:18.261Z,93.79
2016-05-07T07:53:18.078Z,93.88
2016-05-07T07:54:18.236Z,93.69
2016-05-07T07:55:18.036Z,93.4
2016-05-07T07:56:18.180Z,93.69
2016-05-07T07:57:18.182Z,93.79
2016-05-07T07:58:18.153Z,94.36
2016-05-07T07:59:18.124Z,94.26
2016-05-07T08:00:17.955Z,94.65
2016-05-07T08:01:18.083Z,93.98
2016-05-07T08:02:17.930Z,94.26
2016-05-07T08:03:18.057Z,94.07
2016-05-07T08:04:18.029Z,93.98
2016-05-07T08:05:18.031Z,94.74
2016-05-07T08:06:18.003Z,94.65
2016-05-07T08:07:17.974Z,95.12
2016-05-07T08:08:17.962Z,94.74
2016-05-07T08:09:17.932Z,95.31
2016-05-07T08:10:17.920Z,94.45
2016-05-07T08:11:17.907Z,94.65
2016-05-07T08:12:18.097Z,95.22
2016-05-07T08:13:17.865Z,94.98
2016-05-07T08:14:17.853Z,95.61
2016-05-07T08:15:17.823Z,95.22
2016-05-07T08:16:17.812Z,95.03
2016-05-07T08:17:17.782Z,95.03
2016-05-07T08:18:17.769Z,95.12
2016-05-07T08:19:17.772Z,95.51
2016-05-07T08:20:17.744Z,95.12
2016-05-07T08:21:17.731Z,95.03
2016-05-07T08:22:17.703Z,95.61
2016-05-07T08:23:17.689Z,95.61
2016-05-07T08:24:17.504Z,95.22
2016-05-07T08:25:17.647Z,95.41
2016-05-07T08:26:17.636Z,95.41
2016-05-07T08:27:17.638Z,95.61
2016-05-07T08:28:17.593Z,95.31
2016-05-07T08:29:17.569Z,95.7
2016-05-07T08:30:17.599Z,95.61
2016-05-07T08:31:17.630Z,95.51
2016-05-07T08:32:17.660Z,95.7
2016-05-07T08:33:17.674Z,95.79
2016-05-07T08:34:17.544Z,95.41
2016-05-07T08:35:17.687Z,96.18
2016-05-07T08:36:17.691Z,96.18
2016-05-07T08:37:17.693Z,95.79
2016-05-07T08:38:17.679Z,96.47
2016-05-07T08:39:17.680Z,96.18
2016-05-07T08:40:17.674Z,96.18
2016-05-07T08:41:17.650Z,96.08
2016-05-07T08:42:19.019Z,96.37
2016-05-07T08:43:17.464Z,97.04
2016-05-07T08:44:17.457Z,96.18
2016-05-07T08:45:17.602Z,96.47
2016-05-07T08:46:17.576Z,95.89
2016-05-07T08:47:17.549Z,95.7
2016-05-07T08:48:17.553Z,95.98
2016-05-07T08:49:17.371Z,95.61
2016-05-07T08:50:17.515Z,95.51
2016-05-07T08:51:17.487Z,95.51
2016-05-07T08:52:17.491Z,95.65
2016-05-07T08:53:17.306Z,95.51
2016-05-07T08:54:17.450Z,95.65
2016-05-07T08:55:17.422Z,95.36
2016-05-07T08:56:17.410Z,95.36
2016-05-07T08:57:17.241Z,94.69
2016-05-07T08:58:17.369Z,95.17
2016-05-07T08:59:17.341Z,95.17
2016-05-07T09:00:17.343Z,95.27
2016-05-07T09:01:17.315Z,95.36
2016-05-07T09:02:17.302Z,95.07
2016-05-07T09:03:17.273Z,94.89
2016-05-07T09:04:17.261Z,95.07
2016-05-07T09:05:17.232Z,95.27
2016-05-07T09:06:17.079Z,95.07
2016-05-07T09:07:17.206Z,95.17
2016-05-07T09:08:17.021Z,94.69
2016-05-07T09:09:17.180Z,94.21
2016-05-07T09:10:17.152Z,95.07
2016-05-07T09:11:17.123Z,94.5
2016-05-07T09:12:17.141Z,94.69
2016-05-07T09:13:17.097Z,94.4
2016-05-07T09:14:17.085Z,94.69
2016-05-07T09:15:17.056Z,94.79
2016-05-07T09:16:17.043Z,94.02
2016-05-07T09:17:17.029Z,95.27
2016-05-07T09:18:16.845Z,95.27
2016-05-07T09:19:16.989Z,94.4
2016-05-07T09:20:16.976Z,95.46
2016-05-07T09:21:16.962Z,94.6
2016-05-07T09:22:16.933Z,95.46
2016-05-07T09:23:16.921Z,95.27
2016-05-07T09:24:16.908Z,95.07
2016-05-07T09:25:16.880Z,95.17
2016-05-07T09:26:16.867Z,94.89
2016-05-07T09:27:17.588Z,95.17
2016-05-07T09:28:16.841Z,95.17
2016-05-07T09:29:16.812Z,95.17
2016-05-07T09:30:16.783Z,95.27
2016-05-07T09:31:16.771Z,95.36
2016-05-07T09:32:16.741Z,95.41
2016-05-07T09:33:16.744Z,95.31
2016-05-07T09:34:16.732Z,95.41
2016-05-07T09:35:16.703Z,94.45
2016-05-07T09:36:16.675Z,94.35
2016-05-07T09:37:16.662Z,94.17
2016-05-07T09:38:16.493Z,94.84
2016-05-07T09:39:16.463Z,93.88
2016-05-07T09:40:16.607Z,94.35
2016-05-07T09:41:16.579Z,94.64
2016-05-07T09:42:16.613Z,94.55
2016-05-07T09:43:16.396Z,93.59
2016-05-07T09:44:16.540Z,93.69
2016-05-07T09:45:16.512Z,94.26
2016-05-07T09:46:16.515Z,93.88
2016-05-07T09:47:16.485Z,93.49
2016-05-07T09:48:16.457Z,93.69
2016-05-07T09:49:16.459Z,93.88
2016-05-07T09:50:16.431Z,93.78
2016-05-07T09:51:16.403Z,93.49
2016-05-07T09:52:16.390Z,94.07
2016-05-07T09:53:16.376Z,93.69
2016-05-07T09:54:16.364Z,93.88
2016-05-07T09:55:16.319Z,93.49
2016-05-07T09:56:16.307Z,94.07
2016-05-07T09:57:16.419Z,93.4
2016-05-07T09:58:16.281Z,94.4
2016-05-07T09:59:16.267Z,94.17
2016-05-07T10:00:16.239Z,94.02
2016-05-07T10:01:16.227Z,94.6
2016-05-07T10:02:16.214Z,94.89
2016-05-07T10:03:16.185Z,94.4
2016-05-07T10:04:16.172Z,94.64
2016-05-07T10:05:16.159Z,93.93
2016-05-07T10:06:16.146Z,94.31
2016-05-07T10:07:15.961Z,94.5
2016-05-07T10:08:16.105Z,94.21
2016-05-07T10:09:15.935Z,94.79
2016-05-07T10:10:16.063Z,94.6
2016-05-07T10:11:15.879Z,95.56
2016-05-07T10:12:15.896Z,95.36
2016-05-07T10:13:16.009Z,95.07
2016-05-07T10:14:15.980Z,95.07
2016-05-07T10:15:15.982Z,95.36
2016-05-07T10:16:15.813Z,95.36
2016-05-07T10:17:15.941Z,94.98
2016-05-07T10:18:15.913Z,95.75
2016-05-07T10:19:15.900Z,95.27
2016-05-07T10:20:15.871Z,95.17
2016-05-07T10:21:15.874Z,95.27
2016-05-07T10:22:15.845Z,95.17
2016-05-07T10:23:15.831Z,95.46
2016-05-07T10:24:15.803Z,94.89
2016-05-07T10:25:15.792Z,95.46
2016-05-07T10:26:15.762Z,95.17
2016-05-07T10:27:15.749Z,94.98
2016-05-07T10:28:15.732Z,95.65
2016-05-07T10:29:15.719Z,95.36
2016-05-07T10:30:15.549Z,95.46
2016-05-07T10:31:15.678Z,95.17
2016-05-07T10:32:15.664Z,95.56
2016-05-07T10:33:15.651Z,95.84
2016-05-07T10:34:15.622Z,95.65
2016-05-07T10:35:15.595Z,96.03
2016-05-07T10:36:15.581Z,95.75
2016-05-07T10:37:15.568Z,96.03
2016-05-07T10:38:15.556Z,95.56
2016-05-07T10:39:15.527Z,95.46
2016-05-07T10:40:15.513Z,96.32
2016-05-07T10:41:15.501Z,95.75
2016-05-07T10:42:15.504Z,95.65
2016-05-07T10:43:15.460Z,96.22
2016-05-07T10:44:15.430Z,95.94
2016-05-07T10:45:15.418Z,95.65
2016-05-07T10:46:15.405Z,95.36
2016-05-07T10:47:15.392Z,96.51
2016-05-07T10:48:15.363Z,95.75
2016-05-07T10:49:15.351Z,96.51
2016-05-07T10:50:15.338Z,96.03
2016-05-07T10:51:15.324Z,95.65
2016-05-07T10:52:15.296Z,95.94
2016-05-07T10:53:15.127Z,95.94
2016-05-07T10:54:15.270Z,96.22
2016-05-07T10:55:15.242Z,96.89
2016-05-07T10:56:15.228Z,96.32
2016-05-07T10:57:15.060Z,96.8
2016-05-07T10:58:15.203Z,96.7
2016-05-07T10:59:15.174Z,96.51
2016-05-07T11:00:15.146Z,96.42
2016-05-07T11:01:15.133Z,96.56
2016-05-07T11:02:15.119Z,96.7
2016-05-07T11:03:15.091Z,96.32
2016-05-07T11:04:15.079Z,96.7
2016-05-07T11:05:15.066Z,96.7
2016-05-07T11:06:15.036Z,96.8
2016-05-07T11:07:15.025Z,97.18
2016-05-07T11:08:15.011Z,96.61
2016-05-07T11:09:14.982Z,97.33
2016-05-07T11:10:14.969Z,97.23
2016-05-07T11:11:14.957Z,97.13
2016-05-07T11:12:14.944Z,97.61
2016-05-07T11:13:14.915Z,98.09
2016-05-07T11:14:14.886Z,97.9
2016-05-07T11:15:14.874Z,97.52
2016-05-07T11:16:14.845Z,98.38
2016-05-07T11:17:14.848Z,97.23
2016-05-07T11:18:14.819Z,97.71
2016-05-07T11:19:14.807Z,97.9
2016-05-07T11:20:14.793Z,97.61
2016-05-07T11:21:14.765Z,96.99
2016-05-07T11:22:14.751Z,97.04
2016-05-07T11:23:14.770Z,98.09
2016-05-07T11:24:14.710Z,98.19
2016-05-07T11:25:14.682Z,97.8
2016-05-07T11:26:14.668Z,98.33
2016-05-07T11:27:14.640Z,97.56
2016-05-07T11:28:14.643Z,97.56
2016-05-07T11:29:14.614Z,97.61
2016-05-07T11:30:14.601Z,98.38
2016-05-07T11:31:14.589Z,98.43
2016-05-07T11:32:14.559Z,97.09
2016-05-07T11:33:14.548Z,97.23
2016-05-07T11:34:14.534Z,97.04
2016-05-07T11:35:14.506Z,97.23
2016-05-07T11:36:14.492Z,97.71
2016-05-07T11:37:14.479Z,96.99
2016-05-07T11:38:14.451Z,97.71
2016-05-07T11:39:14.438Z,97.33
2016-05-07T11:40:14.410Z,97.23
2016-05-07T11:41:14.396Z,97.23
2016-05-07T11:42:14.384Z,97.13
2016-05-07T11:43:14.355Z,96.94
2016-05-07T11:44:14.341Z,97.04
2016-05-07T11:45:14.330Z,96.27
2016-05-07T11:46:14.332Z,96.66
2016-05-07T11:47:14.288Z,96.66
2016-05-07T11:48:14.274Z,96.99
2016-05-07T11:49:14.262Z,96.51
2016-05-07T11:50:14.093Z,96.51
2016-05-07T11:51:14.205Z,96.99
2016-05-07T11:52:14.035Z,96.89
2016-05-07T11:53:14.179Z,96.42
2016-05-07T11:54:14.151Z,96.7
2016-05-07T11:55:13.981Z,96.03
2016-05-07T11:56:14.124Z,96.22
2016-05-07T11:57:14.111Z,96.22
2016-05-07T11:58:14.099Z,96.89
2016-05-07T11:59:14.070Z,96.32
2016-05-07T12:00:14.042Z,95.94
2016-05-07T12:01:14.028Z,96.13
2016-05-07T12:02:14.031Z,96.7
2016-05-07T12:03:14.003Z,96.8
2016-05-07T12:04:13.989Z,96.42
2016-05-07T12:05:13.961Z,96.99
2016-05-07T12:06:13.933Z,96.32
2016-05-07T12:07:13.936Z,96.13
2016-05-07T12:08:13.906Z,96.13
2016-05-07T12:09:13.738Z,96.42
2016-05-07T12:10:13.866Z,96.7
2016-05-07T12:11:13.852Z,96.61
2016-05-07T12:12:14.339Z,96.47
2016-05-07T12:13:13.811Z,96.32
2016-05-07T12:14:13.782Z,96.37
2016-05-07T12:15:13.769Z,96.66
2016-05-07T12:16:13.757Z,96.61
2016-05-07T12:17:13.743Z,96.56
2016-05-07T12:18:13.730Z,96.37
2016-05-07T12:19:13.702Z,96.66
2016-05-07T12:20:13.689Z,96.94
2016-05-07T12:21:13.660Z,96.94
2016-05-07T12:22:13.491Z,97.52
2016-05-07T12:23:13.619Z,96.84
2016-05-07T12:24:13.606Z,96.61
2016-05-07T12:25:13.593Z,96.99
2016-05-07T12:26:13.564Z,96.56
2016-05-07T12:27:13.771Z,97.38
2016-05-07T12:28:13.539Z,97.09
2016-05-07T12:29:13.526Z,97.18
2016-05-07T12:30:13.340Z,97.18
2016-05-07T12:31:13.484Z,96.89
2016-05-07T12:32:13.456Z,97.23
2016-05-07T12:33:13.442Z,97.56
2016-05-07T12:34:13.446Z,97.18
2016-05-07T12:35:13.400Z,96.99
2016-05-07T12:36:13.373Z,97.09
2016-05-07T12:37:13.375Z,97.18
2016-05-07T12:38:13.362Z,97.56
2016-05-07T12:39:13.333Z,97.18
2016-05-07T12:40:13.181Z,97.09
2016-05-07T12:41:13.136Z,97.18
2016-05-07T12:42:13.280Z,97.28
2016-05-07T12:43:13.344Z,96.7
2016-05-07T12:44:13.238Z,97.09
2016-05-07T12:45:13.225Z,97.38
2016-05-07T12:46:13.213Z,97.38
2016-05-07T12:47:13.183Z,96.99
2016-05-07T12:48:13.171Z,97.61
2016-05-07T12:49:13.142Z,96.99
2016-05-07T12:50:13.129Z,97.28
2016-05-07T12:51:13.101Z,98.28
2016-05-07T12:52:13.103Z,97.9
2016-05-07T12:53:13.074Z,97.61
2016-05-07T12:54:13.076Z,97.56
2016-05-07T12:55:12.877Z,97.61